sensor_id;sensor_type;location;lat;lon;timestamp;pressure;altitude;pressure_sealevel;temperature;humidity
21803;BME280;18591;47.080;22.214;2022-11-06T00:00:15;99359.66;;;15.71;62.40
21803;BME280;18591;47.080;22.214;2022-11-06T00:02:17;99365.06;;;15.71;62.42
21803;BME280;18591;47.080;22.214;2022-11-06T00:04:21;99373.88;;;15.75;62.34
21803;BME280;18591;47.080;22.214;2022-11-06T00:06:24;99373.75;;;15.62;62.63
21803;BME280;18591;47.080;22.214;2022-11-06T00:08:45;99369.78;;;15.67;62.54
21803;BME280;18591;47.080;22.214;2022-11-06T00:10:48;99372.84;;;15.61;62.55
21803;BME280;18591;47.080;22.214;2022-11-06T00:12:50;99364.44;;;15.52;62.86
21803;BME280;18591;47.080;22.214;2022-11-06T00:14:52;99365.59;;;15.48;62.86
21803;BME280;18591;47.080;22.214;2022-11-06T00:16:54;99375.91;;;15.41;63.21
21803;BME280;18591;47.080;22.214;2022-11-06T00:19:21;99375.31;;;15.36;63.67
21803;BME280;18591;47.080;22.214;2022-11-06T00:21:25;99384.94;;;15.41;63.49
21803;BME280;18591;47.080;22.214;2022-11-06T00:23:28;99377.66;;;15.42;63.24
21803;BME280;18591;47.080;22.214;2022-11-06T00:25:30;99371.47;;;15.40;63.05
21803;BME280;18591;47.080;22.214;2022-11-06T00:27:35;99377.88;;;15.39;63.31
21803;BME280;18591;47.080;22.214;2022-11-06T00:29:37;99372.25;;;15.42;62.94
21803;BME280;18591;47.080;22.214;2022-11-06T00:31:40;99380.66;;;15.37;62.93
21803;BME280;18591;47.080;22.214;2022-11-06T00:33:43;99377.16;;;15.35;63.07
21803;BME280;18591;47.080;22.214;2022-11-06T00:35:45;99380.72;;;15.36;63.22
21803;BME280;18591;47.080;22.214;2022-11-06T00:37:47;99382.94;;;15.29;63.45
21803;BME280;18591;47.080;22.214;2022-11-06T00:39:49;99381.38;;;15.25;63.30
21803;BME280;18591;47.080;22.214;2022-11-06T00:41:51;99387.78;;;15.24;63.62
21803;BME280;18591;47.080;22.214;2022-11-06T00:44:00;99387.66;;;15.25;63.36
21803;BME280;18591;47.080;22.214;2022-11-06T00:46:06;99391.75;;;15.33;62.99
21803;BME280;18591;47.080;22.214;2022-11-06T00:48:08;99395.31;;;15.33;62.74
21803;BME280;18591;47.080;22.214;2022-11-06T00:50:11;99402.22;;;15.39;62.48
21803;BME280;18591;47.080;22.214;2022-11-06T00:52:13;99397.56;;;15.41;62.48
21803;BME280;18591;47.080;22.214;2022-11-06T00:54:15;99396.63;;;15.42;62.47
21803;BME280;18591;47.080;22.214;2022-11-06T00:56:18;99388.38;;;15.43;62.10
21803;BME280;18591;47.080;22.214;2022-11-06T00:58:20;99385.59;;;15.45;61.81
21803;BME280;18591;47.080;22.214;2022-11-06T01:00:22;99388.50;;;15.42;61.66
21803;BME280;18591;47.080;22.214;2022-11-06T01:02:24;99389.38;;;15.42;61.19
21803;BME280;18591;47.080;22.214;2022-11-06T01:04:27;99389.31;;;15.28;61.41
21803;BME280;18591;47.080;22.214;2022-11-06T01:06:33;99395.63;;;15.29;61.25
21803;BME280;18591;47.080;22.214;2022-11-06T01:08:36;99391.34;;;15.24;61.06
21803;BME280;18591;47.080;22.214;2022-11-06T01:10:38;99397.72;;;15.23;60.79
21803;BME280;18591;47.080;22.214;2022-11-06T01:12:40;99391.53;;;15.21;61.00
21803;BME280;18591;47.080;22.214;2022-11-06T01:14:43;99396.16;;;15.19;60.72
21803;BME280;18591;47.080;22.214;2022-11-06T01:16:45;99394.31;;;15.20;60.96
21803;BME280;18591;47.080;22.214;2022-11-06T01:18:48;99390.59;;;15.07;60.76
21803;BME280;18591;47.080;22.214;2022-11-06T01:20:50;99393.03;;;15.11;60.68
21803;BME280;18591;47.080;22.214;2022-11-06T01:22:52;99390.69;;;15.05;60.39
21803;BME280;18591;47.080;22.214;2022-11-06T01:24:54;99388.09;;;15.03;60.23
21803;BME280;18591;47.080;22.214;2022-11-06T01:26:57;99397.06;;;15.04;60.44
21803;BME280;18591;47.080;22.214;2022-11-06T01:29:19;99396.84;;;14.93;60.29
21803;BME280;18591;47.080;22.214;2022-11-06T01:31:24;99395.84;;;14.94;60.18
21803;BME280;18591;47.080;22.214;2022-11-06T01:33:28;99402.25;;;14.93;59.90
21803;BME280;18591;47.080;22.214;2022-11-06T01:35:30;99394.22;;;14.91;59.76
21803;BME280;18591;47.080;22.214;2022-11-06T01:37:32;99397.00;;;14.90;59.75
21803;BME280;18591;47.080;22.214;2022-11-06T01:39:34;99395.34;;;14.87;59.56
21803;BME280;18591;47.080;22.214;2022-11-06T01:41:48;99396.56;;;14.81;59.45
21803;BME280;18591;47.080;22.214;2022-11-06T01:44:01;99394.03;;;14.78;59.51
21803;BME280;18591;47.080;22.214;2022-11-06T01:46:03;99396.75;;;14.78;59.84
21803;BME280;18591;47.080;22.214;2022-11-06T01:48:05;99397.78;;;14.76;59.61
21803;BME280;18591;47.080;22.214;2022-11-06T01:50:08;99400.69;;;14.73;59.54
21803;BME280;18591;47.080;22.214;2022-11-06T01:52:13;99398.84;;;14.73;59.56
21803;BME280;18591;47.080;22.214;2022-11-06T01:54:16;99403.81;;;14.65;59.55
21803;BME280;18591;47.080;22.214;2022-11-06T01:56:20;99406.59;;;14.64;60.03
21803;BME280;18591;47.080;22.214;2022-11-06T01:58:24;99404.16;;;14.59;59.94
21803;BME280;18591;47.080;22.214;2022-11-06T02:00:27;99404.34;;;14.56;60.07
21803;BME280;18591;47.080;22.214;2022-11-06T02:02:31;99410.72;;;14.55;59.86
21803;BME280;18591;47.080;22.214;2022-11-06T02:04:40;99402.28;;;14.44;59.93
21803;BME280;18591;47.080;22.214;2022-11-06T02:06:44;99399.16;;;14.51;59.66
21803;BME280;18591;47.080;22.214;2022-11-06T02:08:47;99401.75;;;14.54;60.01
21803;BME280;18591;47.080;22.214;2022-11-06T02:10:50;99405.59;;;14.49;60.03
21803;BME280;18591;47.080;22.214;2022-11-06T02:15:15;99414.06;;;14.43;59.62
21803;BME280;18591;47.080;22.214;2022-11-06T02:20:06;99415.53;;;14.16;60.51
21803;BME280;18591;47.080;22.214;2022-11-06T02:23:42;99414.03;;;14.11;60.86
21803;BME280;18591;47.080;22.214;2022-11-06T02:25:34;99413.59;;;14.03;60.96
21803;BME280;18591;47.080;22.214;2022-11-06T02:30:14;99415.69;;;13.80;61.54
21803;BME280;18591;47.080;22.214;2022-11-06T02:32:32;99429.03;;;13.66;62.26
21803;BME280;18591;47.080;22.214;2022-11-06T02:34:37;99420.06;;;13.65;62.36
21803;BME280;18591;47.080;22.214;2022-11-06T02:37:02;99435.69;;;13.59;62.99
21803;BME280;18591;47.080;22.214;2022-11-06T02:39:11;99438.41;;;13.59;63.18
21803;BME280;18591;47.080;22.214;2022-11-06T02:41:22;99434.53;;;13.64;63.42
21803;BME280;18591;47.080;22.214;2022-11-06T02:43:31;99441.25;;;13.73;62.96
21803;BME280;18591;47.080;22.214;2022-11-06T02:46:01;99437.34;;;13.79;62.79
21803;BME280;18591;47.080;22.214;2022-11-06T02:48:06;99431.31;;;13.91;62.26
21803;BME280;18591;47.080;22.214;2022-11-06T02:50:23;99431.25;;;13.92;62.71
21803;BME280;18591;47.080;22.214;2022-11-06T02:52:52;99432.91;;;13.95;62.81
21803;BME280;18591;47.080;22.214;2022-11-06T02:55:03;99428.88;;;14.02;62.31
21803;BME280;18591;47.080;22.214;2022-11-06T02:57:10;99424.22;;;14.06;62.32
21803;BME280;18591;47.080;22.214;2022-11-06T03:01:36;99440.66;;;14.01;62.08
21803;BME280;18591;47.080;22.214;2022-11-06T03:03:44;99436.75;;;14.07;62.25
21803;BME280;18591;47.080;22.214;2022-11-06T03:05:56;99437.97;;;14.01;62.40
21803;BME280;18591;47.080;22.214;2022-11-06T03:08:39;99434.47;;;13.99;62.84
21803;BME280;18591;47.080;22.214;2022-11-06T03:13:04;99447.56;;;14.07;62.38
21803;BME280;18591;47.080;22.214;2022-11-06T03:15:40;99443.72;;;13.95;62.35
21803;BME280;18591;47.080;22.214;2022-11-06T03:17:58;99449.09;;;13.95;62.53
21803;BME280;18591;47.080;22.214;2022-11-06T03:27:07;99460.03;;;13.92;62.10
21803;BME280;18591;47.080;22.214;2022-11-06T03:29:20;99468.25;;;13.90;62.21
21803;BME280;18591;47.080;22.214;2022-11-06T03:31:38;99452.47;;;13.83;63.33
21803;BME280;18591;47.080;22.214;2022-11-06T03:34:06;99456.50;;;13.74;63.94
21803;BME280;18591;47.080;22.214;2022-11-06T03:37:06;99457.53;;;13.71;63.56
21803;BME280;18591;47.080;22.214;2022-11-06T03:38:45;99466.19;;;13.78;63.77
21803;BME280;18591;47.080;22.214;2022-11-06T03:40:56;99458.31;;;13.73;64.05
21803;BME280;18591;47.080;22.214;2022-11-06T03:43:03;99448.78;;;13.84;63.30
21803;BME280;18591;47.080;22.214;2022-11-06T03:45:12;99458.47;;;13.88;63.07
21803;BME280;18591;47.080;22.214;2022-11-06T03:47:27;99466.81;;;13.83;63.40
21803;BME280;18591;47.080;22.214;2022-11-06T03:49:37;99466.66;;;13.86;63.40
21803;BME280;18591;47.080;22.214;2022-11-06T03:51:46;99464.41;;;13.94;63.00
21803;BME280;18591;47.080;22.214;2022-11-06T03:53:56;99470.22;;;13.87;64.30
21803;BME280;18591;47.080;22.214;2022-11-06T03:56:11;99472.50;;;13.94;63.54
21803;BME280;18591;47.080;22.214;2022-11-06T03:58:18;99471.41;;;13.99;63.57
21803;BME280;18591;47.080;22.214;2022-11-06T04:00:22;99469.34;;;14.04;63.51
21803;BME280;18591;47.080;22.214;2022-11-06T04:02:25;99473.00;;;14.03;63.49
21803;BME280;18591;47.080;22.214;2022-11-06T04:04:34;99483.19;;;13.98;64.52
21803;BME280;18591;47.080;22.214;2022-11-06T04:07:05;99482.56;;;13.92;65.04
21803;BME280;18591;47.080;22.214;2022-11-06T04:09:10;99488.09;;;13.89;65.34
21803;BME280;18591;47.080;22.214;2022-11-06T04:11:34;99489.63;;;13.95;65.02
21803;BME280;18591;47.080;22.214;2022-11-06T04:13:58;99487.94;;;13.92;65.00
21803;BME280;18591;47.080;22.214;2022-11-06T04:16:03;99480.38;;;13.99;64.59
21803;BME280;18591;47.080;22.214;2022-11-06T04:18:11;99473.00;;;14.03;64.21
21803;BME280;18591;47.080;22.214;2022-11-06T04:20:18;99474.69;;;14.05;63.95
21803;BME280;18591;47.080;22.214;2022-11-06T04:27:47;99471.25;;;14.02;63.93
21803;BME280;18591;47.080;22.214;2022-11-06T04:32:22;99476.00;;;14.14;63.68
21803;BME280;18591;47.080;22.214;2022-11-06T04:37:09;99482.16;;;14.00;64.26
21803;BME280;18591;47.080;22.214;2022-11-06T04:39:28;99491.53;;;13.93;64.37
21803;BME280;18591;47.080;22.214;2022-11-06T04:41:46;99484.34;;;14.09;64.04
21803;BME280;18591;47.080;22.214;2022-11-06T04:43:56;99481.63;;;14.09;63.74
21803;BME280;18591;47.080;22.214;2022-11-06T04:46:00;99482.38;;;14.13;64.14
21803;BME280;18591;47.080;22.214;2022-11-06T04:48:03;99474.16;;;14.14;63.75
21803;BME280;18591;47.080;22.214;2022-11-06T04:50:08;99476.06;;;14.12;64.78
21803;BME280;18591;47.080;22.214;2022-11-06T04:52:17;99481.81;;;14.06;65.30
21803;BME280;18591;47.080;22.214;2022-11-06T04:54:20;99472.31;;;14.15;64.41
21803;BME280;18591;47.080;22.214;2022-11-06T04:56:29;99486.81;;;14.14;65.03
21803;BME280;18591;47.080;22.214;2022-11-06T04:58:35;99483.00;;;14.18;64.60
21803;BME280;18591;47.080;22.214;2022-11-06T05:00:42;99482.38;;;14.13;64.92
21803;BME280;18591;47.080;22.214;2022-11-06T05:02:45;99483.06;;;14.16;65.04
21803;BME280;18591;47.080;22.214;2022-11-06T05:04:48;99483.84;;;14.19;64.70
21803;BME280;18591;47.080;22.214;2022-11-06T05:06:50;99481.22;;;14.17;65.24
21803;BME280;18591;47.080;22.214;2022-11-06T05:08:52;99477.91;;;14.12;65.85
21803;BME280;18591;47.080;22.214;2022-11-06T05:10:54;99485.69;;;14.18;65.77
21803;BME280;18591;47.080;22.214;2022-11-06T05:12:56;99491.78;;;14.22;65.32
21803;BME280;18591;47.080;22.214;2022-11-06T05:14:58;99510.63;;;14.23;65.34
21803;BME280;18591;47.080;22.214;2022-11-06T05:17:00;99494.72;;;14.17;65.64
21803;BME280;18591;47.080;22.214;2022-11-06T05:19:03;99511.75;;;14.19;65.65
21803;BME280;18591;47.080;22.214;2022-11-06T05:21:05;99510.06;;;14.16;65.95
21803;BME280;18591;47.080;22.214;2022-11-06T05:23:27;99516.28;;;14.19;65.99
21803;BME280;18591;47.080;22.214;2022-11-06T05:25:32;99517.72;;;14.26;65.39
21803;BME280;18591;47.080;22.214;2022-11-06T05:27:35;99520.41;;;14.26;65.79
21803;BME280;18591;47.080;22.214;2022-11-06T05:29:37;99522.31;;;14.24;65.78
21803;BME280;18591;47.080;22.214;2022-11-06T05:31:40;99520.41;;;14.26;65.79
21803;BME280;18591;47.080;22.214;2022-11-06T05:33:42;99527.47;;;14.28;66.06
21803;BME280;18591;47.080;22.214;2022-11-06T05:35:47;99523.88;;;14.28;66.24
21803;BME280;18591;47.080;22.214;2022-11-06T05:37:49;99529.38;;;14.26;65.87
21803;BME280;18591;47.080;22.214;2022-11-06T05:39:51;99527.63;;;14.25;66.38
21803;BME280;18591;47.080;22.214;2022-11-06T05:41:53;99528.16;;;14.32;66.08
21803;BME280;18591;47.080;22.214;2022-11-06T05:43:56;99528.88;;;14.35;66.12
21803;BME280;18591;47.080;22.214;2022-11-06T05:45:58;99535.31;;;14.33;66.27
21803;BME280;18591;47.080;22.214;2022-11-06T05:48:01;99547.09;;;14.32;66.22
21803;BME280;18591;47.080;22.214;2022-11-06T05:50:03;99555.03;;;14.35;66.13
21803;BME280;18591;47.080;22.214;2022-11-06T05:52:06;99552.88;;;14.42;66.21
21803;BME280;18591;47.080;22.214;2022-11-06T05:54:08;99554.78;;;14.40;65.93
21803;BME280;18591;47.080;22.214;2022-11-06T05:56:10;99547.66;;;14.38;66.26
21803;BME280;18591;47.080;22.214;2022-11-06T05:58:13;99558.47;;;14.38;66.53
21803;BME280;18591;47.080;22.214;2022-11-06T06:00:16;99564.16;;;14.32;66.81
21803;BME280;18591;47.080;22.214;2022-11-06T06:02:18;99560.59;;;14.32;66.83
21803;BME280;18591;47.080;22.214;2022-11-06T06:04:20;99560.59;;;14.32;66.71
21803;BME280;18591;47.080;22.214;2022-11-06T06:06:22;99560.44;;;14.35;66.71
21803;BME280;18591;47.080;22.214;2022-11-06T06:08:25;99566.63;;;14.37;66.90
21803;BME280;18591;47.080;22.214;2022-11-06T06:10:27;99558.53;;;14.37;66.81
21803;BME280;18591;47.080;22.214;2022-11-06T06:12:29;99563.13;;;14.35;66.92
21803;BME280;18591;47.080;22.214;2022-11-06T06:14:31;99562.91;;;14.40;66.69
21803;BME280;18591;47.080;22.214;2022-11-06T06:16:33;99559.06;;;14.44;66.60
21803;BME280;18591;47.080;22.214;2022-11-06T06:18:36;99568.38;;;14.38;66.59
21803;BME280;18591;47.080;22.214;2022-11-06T06:20:38;99568.53;;;14.35;66.93
21803;BME280;18591;47.080;22.214;2022-11-06T06:22:40;99564.91;;;14.36;67.13
21803;BME280;18591;47.080;22.214;2022-11-06T06:24:42;99573.88;;;14.36;66.66
21803;BME280;18591;47.080;22.214;2022-11-06T06:26:44;99572.09;;;14.35;67.14
21803;BME280;18591;47.080;22.214;2022-11-06T06:28:47;99579.34;;;14.35;67.11
21803;BME280;18591;47.080;22.214;2022-11-06T06:30:52;99588.25;;;14.37;67.27
21803;BME280;18591;47.080;22.214;2022-11-06T06:33:03;99590.91;;;14.38;67.17
21803;BME280;18591;47.080;22.214;2022-11-06T06:35:06;99586.59;;;14.34;67.05
21803;BME280;18591;47.080;22.214;2022-11-06T06:37:10;99593.84;;;14.34;66.92
21803;BME280;18591;47.080;22.214;2022-11-06T06:39:17;99590.31;;;14.32;67.37
21803;BME280;18591;47.080;22.214;2022-11-06T06:41:23;99590.72;;;14.24;67.45
21803;BME280;18591;47.080;22.214;2022-11-06T06:43:26;99586.75;;;14.31;67.31
21803;BME280;18591;47.080;22.214;2022-11-06T06:45:28;99580.56;;;14.29;67.43
21803;BME280;18591;47.080;22.214;2022-11-06T06:47:30;99580.88;;;14.23;68.07
21803;BME280;18591;47.080;22.214;2022-11-06T06:49:33;99587.16;;;14.24;67.44
21803;BME280;18591;47.080;22.214;2022-11-06T06:51:36;99594.06;;;14.29;67.33
21803;BME280;18591;47.080;22.214;2022-11-06T06:53:38;99589.84;;;14.41;67.24
21803;BME280;18591;47.080;22.214;2022-11-06T06:55:43;99588.72;;;14.45;67.08
21803;BME280;18591;47.080;22.214;2022-11-06T06:57:45;99583.94;;;14.50;66.86
21803;BME280;18591;47.080;22.214;2022-11-06T06:59:47;99593.75;;;14.53;66.77
21803;BME280;18591;47.080;22.214;2022-11-06T07:01:49;99592.78;;;14.54;66.67
21803;BME280;18591;47.080;22.214;2022-11-06T07:03:51;99594.38;;;14.58;66.81
21803;BME280;18591;47.080;22.214;2022-11-06T07:05:53;99587.22;;;14.57;66.99
21803;BME280;18591;47.080;22.214;2022-11-06T07:07:56;99591.75;;;14.56;67.01
21803;BME280;18591;47.080;22.214;2022-11-06T07:09:58;99596.28;;;14.56;67.17
21803;BME280;18591;47.080;22.214;2022-11-06T07:12:00;99598.91;;;14.57;66.99
21803;BME280;18591;47.080;22.214;2022-11-06T07:14:02;99604.31;;;14.57;67.00
21803;BME280;18591;47.080;22.214;2022-11-06T07:16:06;99602.72;;;14.53;66.88
21803;BME280;18591;47.080;22.214;2022-11-06T07:18:08;99602.56;;;14.56;67.08
21803;BME280;18591;47.080;22.214;2022-11-06T07:20:10;99601.63;;;14.57;67.32
21803;BME280;18591;47.080;22.214;2022-11-06T07:22:12;99612.97;;;14.64;66.87
21803;BME280;18591;47.080;22.214;2022-11-06T07:24:14;99606.63;;;14.65;66.85
21803;BME280;18591;47.080;22.214;2022-11-06T07:26:18;99611.16;;;14.65;66.97
21803;BME280;18591;47.080;22.214;2022-11-06T07:28:20;99611.78;;;14.70;66.75
21803;BME280;18591;47.080;22.214;2022-11-06T07:30:22;99614.31;;;14.73;66.64
21803;BME280;18591;47.080;22.214;2022-11-06T07:32:25;99607.94;;;14.74;66.74
21803;BME280;18591;47.080;22.214;2022-11-06T07:34:27;99611.25;;;14.79;66.55
21803;BME280;18591;47.080;22.214;2022-11-06T07:36:29;99609.34;;;14.81;66.47
21803;BME280;18591;47.080;22.214;2022-11-06T07:38:34;99606.56;;;14.83;66.54
21803;BME280;18591;47.080;22.214;2022-11-06T07:40:36;99603.06;;;14.80;66.47
21803;BME280;18591;47.080;22.214;2022-11-06T07:42:41;99604.75;;;14.83;66.49
21803;BME280;18591;47.080;22.214;2022-11-06T07:44:48;99604.41;;;14.89;66.26
21803;BME280;18591;47.080;22.214;2022-11-06T07:46:54;99603.59;;;14.87;66.75
21803;BME280;18591;47.080;22.214;2022-11-06T07:48:57;99602.91;;;14.84;66.76
21803;BME280;18591;47.080;22.214;2022-11-06T07:51:03;99612.06;;;14.81;66.53
21803;BME280;18591;47.080;22.214;2022-11-06T07:53:06;99607.97;;;14.90;66.26
21803;BME280;18591;47.080;22.214;2022-11-06T07:55:08;99601.50;;;14.92;66.27
21803;BME280;18591;47.080;22.214;2022-11-06T07:57:10;99606.78;;;14.95;66.41
21803;BME280;18591;47.080;22.214;2022-11-06T07:59:12;99609.31;;;14.98;66.21
21803;BME280;18591;47.080;22.214;2022-11-06T08:01:16;99613.69;;;15.01;66.49
21803;BME280;18591;47.080;22.214;2022-11-06T08:03:22;99608.16;;;15.02;66.24
21803;BME280;18591;47.080;22.214;2022-11-06T08:05:24;99615.41;;;15.02;66.45
21803;BME280;18591;47.080;22.214;2022-11-06T08:07:27;99616.38;;;15.01;66.40
21803;BME280;18591;47.080;22.214;2022-11-06T08:09:29;99616.28;;;15.02;66.21
21803;BME280;18591;47.080;22.214;2022-11-06T08:11:31;99622.41;;;15.06;66.37
21803;BME280;18591;47.080;22.214;2022-11-06T08:13:33;99617.06;;;15.05;66.35
21803;BME280;18591;47.080;22.214;2022-11-06T08:15:36;99624.16;;;15.07;66.52
21803;BME280;18591;47.080;22.214;2022-11-06T08:17:39;99627.56;;;15.11;66.20
21803;BME280;18591;47.080;22.214;2022-11-06T08:19:41;99627.56;;;15.11;66.37
21803;BME280;18591;47.080;22.214;2022-11-06T08:21:43;99625.75;;;15.11;66.49
21803;BME280;18591;47.080;22.214;2022-11-06T08:23:45;99626.44;;;15.15;65.99
21803;BME280;18591;47.080;22.214;2022-11-06T08:25:47;99626.53;;;15.13;66.55
21803;BME280;18591;47.080;22.214;2022-11-06T08:27:51;99620.94;;;15.16;66.22
21803;BME280;18591;47.080;22.214;2022-11-06T08:29:54;99629.69;;;15.21;66.44
21803;BME280;18591;47.080;22.214;2022-11-06T08:31:57;99628.97;;;15.18;66.70
21803;BME280;18591;47.080;22.214;2022-11-06T08:33:59;99633.31;;;15.20;66.43
21803;BME280;18591;47.080;22.214;2022-11-06T08:36:02;99641.31;;;15.23;66.24
21803;BME280;18591;47.080;22.214;2022-11-06T08:38:04;99642.25;;;15.22;66.24
21803;BME280;18591;47.080;22.214;2022-11-06T08:40:07;99636.31;;;15.32;65.64
21803;BME280;18591;47.080;22.214;2022-11-06T08:42:09;99638.78;;;15.36;65.94
21803;BME280;18591;47.080;22.214;2022-11-06T08:44:11;99641.31;;;15.39;65.94
21803;BME280;18591;47.080;22.214;2022-11-06T08:46:13;99634.31;;;15.35;65.91
21803;BME280;18591;47.080;22.214;2022-11-06T08:48:16;99633.44;;;15.35;66.01
21803;BME280;18591;47.080;22.214;2022-11-06T08:50:17;99635.34;;;15.33;66.06
21803;BME280;18591;47.080;22.214;2022-11-06T08:52:20;99634.22;;;15.37;65.98
21803;BME280;18591;47.080;22.214;2022-11-06T08:54:22;99632.41;;;15.37;65.74
21803;BME280;18591;47.080;22.214;2022-11-06T08:56:24;99632.47;;;15.36;66.13
21803;BME280;18591;47.080;22.214;2022-11-06T08:58:27;99637.72;;;15.39;66.11
21803;BME280;18591;47.080;22.214;2022-11-06T09:00:29;99635.34;;;15.49;65.84
21803;BME280;18591;47.080;22.214;2022-11-06T09:02:32;99639.66;;;15.53;66.04
21803;BME280;18591;47.080;22.214;2022-11-06T09:04:34;99634.16;;;15.54;65.77
21803;BME280;18591;47.080;22.214;2022-11-06T09:06:41;99645.06;;;15.53;65.64
21803;BME280;18591;47.080;22.214;2022-11-06T09:08:44;99633.25;;;15.54;65.49
21803;BME280;18591;47.080;22.214;2022-11-06T09:10:46;99638.41;;;15.58;65.50
21803;BME280;18591;47.080;22.214;2022-11-06T09:12:48;99637.47;;;15.59;65.81
21803;BME280;18591;47.080;22.214;2022-11-06T09:14:50;99641.91;;;15.60;65.45
21803;BME280;18591;47.080;22.214;2022-11-06T09:16:53;99648.19;;;15.61;65.72
21803;BME280;18591;47.080;22.214;2022-11-06T09:18:55;99643.94;;;15.57;65.56
21803;BME280;18591;47.080;22.214;2022-11-06T09:20:57;99648.03;;;15.64;65.66
21803;BME280;18591;47.080;22.214;2022-11-06T09:23:01;99641.13;;;15.58;65.80
21803;BME280;18591;47.080;22.214;2022-11-06T09:25:04;99634.66;;;15.61;65.93
21803;BME280;18591;47.080;22.214;2022-11-06T09:27:06;99638.94;;;15.65;65.33
21803;BME280;18591;47.080;22.214;2022-11-06T09:29:09;99646.03;;;15.67;65.23
21803;BME280;18591;47.080;22.214;2022-11-06T09:31:11;99649.69;;;15.66;65.54
21803;BME280;18591;47.080;22.214;2022-11-06T09:33:13;99647.63;;;15.72;65.48
21803;BME280;18591;47.080;22.214;2022-11-06T09:35:16;99642.97;;;15.74;65.14
21803;BME280;18591;47.080;22.214;2022-11-06T09:37:18;99642.97;;;15.74;65.49
21803;BME280;18591;47.080;22.214;2022-11-06T09:39:20;99657.31;;;15.76;65.22
21803;BME280;18591;47.080;22.214;2022-11-06T09:43:55;99655.03;;;15.68;65.59
21803;BME280;18591;47.080;22.214;2022-11-06T09:46:32;99658.78;;;15.65;65.39
21803;BME280;18591;47.080;22.214;2022-11-06T09:48:41;99656.44;;;15.75;65.24
21803;BME280;18591;47.080;22.214;2022-11-06T09:53:18;99663.78;;;15.73;65.32
21803;BME280;18591;47.080;22.214;2022-11-06T09:55:26;99657.56;;;15.71;65.30
21803;BME280;18591;47.080;22.214;2022-11-06T09:57:41;99660.22;;;15.73;65.85
21803;BME280;18591;47.080;22.214;2022-11-06T09:59:45;99662.91;;;15.73;65.91
21803;BME280;18591;47.080;22.214;2022-11-06T10:04:49;99666.38;;;15.75;65.80
21803;BME280;18591;47.080;22.214;2022-11-06T10:06:52;99668.75;;;15.81;65.58
21803;BME280;18591;47.080;22.214;2022-11-06T10:08:58;99664.91;;;15.85;64.98
21803;BME280;18591;47.080;22.214;2022-11-06T10:15:26;99677.94;;;15.78;64.83
21803;BME280;18591;47.080;22.214;2022-11-06T10:19:48;99658.88;;;15.96;64.77
21803;BME280;18591;47.080;22.214;2022-11-06T10:26:57;99651.41;;;16.15;64.26
21803;BME280;18591;47.080;22.214;2022-11-06T10:36:17;99659.94;;;16.23;64.27
21803;BME280;18591;47.080;22.214;2022-11-06T10:38:24;99662.19;;;16.31;64.26
21803;BME280;18591;47.080;22.214;2022-11-06T10:40:30;99665.78;;;16.31;64.34
21803;BME280;18591;47.080;22.214;2022-11-06T10:42:37;99660.47;;;16.30;64.49
21803;BME280;18591;47.080;22.214;2022-11-06T10:44:55;99662.91;;;16.35;64.56
21803;BME280;18591;47.080;22.214;2022-11-06T10:47:03;99660.31;;;16.47;64.51
21803;BME280;18591;47.080;22.214;2022-11-06T10:49:32;99659.72;;;16.42;64.09
21803;BME280;18591;47.080;22.214;2022-11-06T10:51:42;99652.06;;;16.49;64.11
21803;BME280;18591;47.080;22.214;2022-11-06T10:58:26;99655.28;;;16.55;63.99
21803;BME280;18591;47.080;22.214;2022-11-06T11:00:30;99646.69;;;16.63;64.06
21803;BME280;18591;47.080;22.214;2022-11-06T11:02:34;99642.84;;;16.67;64.54
21803;BME280;18591;47.080;22.214;2022-11-06T11:04:38;99645.94;;;16.75;64.30
21803;BME280;18591;47.080;22.214;2022-11-06T11:06:41;99645.50;;;16.83;63.92
21803;BME280;18591;47.080;22.214;2022-11-06T11:08:50;99640.34;;;16.79;63.88
21803;BME280;18591;47.080;22.214;2022-11-06T11:11:00;99633.00;;;16.81;64.34
21803;BME280;18591;47.080;22.214;2022-11-06T11:13:18;99633.78;;;16.83;63.25
21803;BME280;18591;47.080;22.214;2022-11-06T11:15:23;99639.59;;;16.91;64.00
21803;BME280;18591;47.080;22.214;2022-11-06T11:17:26;99634.84;;;16.94;63.57
21803;BME280;18591;47.080;22.214;2022-11-06T11:19:39;99624.38;;;16.88;63.17
21803;BME280;18591;47.080;22.214;2022-11-06T11:24:19;99636.88;;;16.91;63.21
21803;BME280;18591;47.080;22.214;2022-11-06T11:26:24;99637.66;;;16.93;63.29
21803;BME280;18591;47.080;22.214;2022-11-06T11:28:35;99636.88;;;16.91;63.67
21803;BME280;18591;47.080;22.214;2022-11-06T11:30:38;99616.63;;;16.96;63.47
21803;BME280;18591;47.080;22.214;2022-11-06T11:32:40;99623.88;;;16.96;63.15
21803;BME280;18591;47.080;22.214;2022-11-06T11:34:46;99615.06;;;16.92;63.21
21803;BME280;18591;47.080;22.214;2022-11-06T11:37:04;99617.00;;;16.90;62.09
21803;BME280;18591;47.080;22.214;2022-11-06T11:39:07;99615.75;;;16.96;62.91
21803;BME280;18591;47.080;22.214;2022-11-06T11:43:28;99605.84;;;16.95;63.10
21803;BME280;18591;47.080;22.214;2022-11-06T11:45:30;99626.19;;;17.02;62.97
21803;BME280;18591;47.080;22.214;2022-11-06T11:47:34;99614.41;;;17.03;63.06
21803;BME280;18591;47.080;22.214;2022-11-06T11:49:36;99611.69;;;17.03;63.20
21803;BME280;18591;47.080;22.214;2022-11-06T11:51:42;99621.44;;;17.06;63.05
21803;BME280;18591;47.080;22.214;2022-11-06T11:53:48;99619.44;;;17.09;63.18
21803;BME280;18591;47.080;22.214;2022-11-06T11:55:50;99612.22;;;17.08;62.98
21803;BME280;18591;47.080;22.214;2022-11-06T11:57:58;99615.06;;;17.07;62.59
21803;BME280;18591;47.080;22.214;2022-11-06T12:00:03;99619.22;;;17.12;63.11
21803;BME280;18591;47.080;22.214;2022-11-06T12:02:33;99613.59;;;17.15;63.00
21803;BME280;18591;47.080;22.214;2022-11-06T12:04:41;99614.09;;;17.22;62.95